Time;durP1;ratioP1;P1;durP2;ratioP2;P2;SDS_P1;SDS_P2;PMS_P1;PMS_P2;Temp;Humidity;BMP_temperature;BMP_pressure;BME280_temperature;BME280_humidity;BME280_pressure;Samples;Min_cycle;Max_cycle;Signal;HPM_P1;HPM_P2
2022/03/06 00:01:40;;;;;;;48.17;19.60;;;0.40;99.90;;;;;;5086680;28;20674;-85
2022/03/06 00:04:07;;;;;;;52.53;20.70;;;0.20;99.90;;;;;;5101503;28;20303;-86
2022/03/06 00:06:34;;;;;;;49.67;20.50;;;0.20;99.90;;;;;;5091948;28;20200;-83
2022/03/06 00:09:01;;;;;;;51.50;21.30;;;0.20;99.90;;;;;;5085999;28;20265;-85
2022/03/06 00:11:29;;;;;;;54.53;21.70;;;0.10;99.90;;;;;;5076176;28;20208;-85
2022/03/06 00:13:56;;;;;;;44.53;20.90;;;0.10;99.90;;;;;;5087746;28;20205;-84
2022/03/06 00:16:23;;;;;;;47.87;19.53;;;0.20;99.90;;;;;;5081255;28;20354;-85
2022/03/06 00:18:50;;;;;;;46.03;20.50;;;0.20;99.90;;;;;;5084349;28;20717;-85
2022/03/06 00:21:17;;;;;;;50.40;21.37;;;0.10;99.90;;;;;;5079254;28;20326;-85
2022/03/06 00:23:43;;;;;;;48.77;22.00;;;0.10;99.90;;;;;;5078133;28;20322;-84
2022/03/06 00:26:10;;;;;;;50.53;20.27;;;0.10;99.90;;;;;;5065629;28;20219;-85
2022/03/06 00:28:37;;;;;;;48.87;20.77;;;0.10;99.90;;;;;;5089171;28;20224;-84
2022/03/06 00:31:05;;;;;;;53.63;22.00;;;0.10;99.90;;;;;;5066703;28;20226;-86
2022/03/06 00:33:34;;;;;;;54.53;22.07;;;0.00;99.90;;;;;;5094319;28;20192;-86
2022/03/06 00:36:01;;;;;;;41.53;18.97;;;0.00;99.90;;;;;;5091181;28;20231;-85
2022/03/06 00:38:28;;;;;;;43.10;19.53;;;0.00;99.90;;;;;;5071701;28;20284;-86
2022/03/06 00:40:55;;;;;;;42.70;19.33;;;0.00;99.90;;;;;;5093956;28;20307;-86
2022/03/06 00:43:22;;;;;;;37.63;17.77;;;-0.10;99.90;;;;;;5076259;28;20201;-85
2022/03/06 00:45:48;;;;;;;44.60;18.97;;;-0.10;99.90;;;;;;5096412;28;20258;-86
2022/03/06 00:48:15;;;;;;;46.40;17.77;;;-0.10;99.90;;;;;;5076487;28;20318;-85
2022/03/06 00:50:42;;;;;;;41.50;18.07;;;-0.10;99.90;;;;;;5090405;28;20291;-85
2022/03/06 00:53:09;;;;;;;39.77;17.03;;;-0.10;99.90;;;;;;5072035;28;20196;-85
2022/03/06 00:55:37;;;;;;;38.80;17.47;;;-0.10;99.90;;;;;;5057822;28;20328;-84
2022/03/06 00:58:09;;;;;;;43.77;17.43;;;-0.10;99.90;;;;;;5083769;28;20284;-85
2022/03/06 01:00:39;;;;;;;39.30;17.10;;;-0.20;99.90;;;;;;5074377;28;20216;-85
2022/03/06 01:03:10;;;;;;;35.13;18.10;;;-0.20;99.90;;;;;;5092763;28;20200;-85
2022/03/06 01:05:37;;;;;;;36.70;16.13;;;-0.20;99.90;;;;;;5096358;28;20214;-84
2022/03/06 01:08:06;;;;;;;43.90;17.37;;;-0.10;99.90;;;;;;5076288;28;20204;-87
2022/03/06 01:10:35;;;;;;;40.77;17.00;;;-0.20;99.90;;;;;;5064296;28;20228;-86
2022/03/06 01:13:03;;;;;;;33.63;16.87;;;-0.20;99.90;;;;;;5086845;28;20291;-85
2022/03/06 01:15:31;;;;;;;40.90;17.57;;;-0.20;99.90;;;;;;5097284;28;20300;-86
2022/03/06 01:17:58;;;;;;;38.43;16.80;;;-0.20;99.90;;;;;;5082718;28;20601;-85
2022/03/06 01:20:25;;;;;;;37.47;15.43;;;-0.20;99.90;;;;;;5077648;28;20206;-87
2022/03/06 01:22:53;;;;;;;37.57;17.17;;;-0.20;99.90;;;;;;5069691;28;20294;-86
2022/03/06 01:25:21;;;;;;;34.97;16.17;;;-0.30;99.90;;;;;;5063629;28;20699;-86
2022/03/06 01:27:48;;;;;;;36.33;15.37;;;-0.30;99.90;;;;;;5074291;28;20239;-87
2022/03/06 01:30:16;;;;;;;37.60;16.60;;;-0.30;99.90;;;;;;5071816;28;20247;-86
2022/03/06 01:32:43;;;;;;;39.23;17.77;;;-0.30;99.90;;;;;;5071867;28;20227;-85
2022/03/06 01:35:10;;;;;;;37.30;16.30;;;-0.40;99.90;;;;;;5092458;28;20300;-85
2022/03/06 01:37:37;;;;;;;35.37;15.40;;;-0.30;99.90;;;;;;5094782;28;20296;-86
2022/03/06 01:40:06;;;;;;;32.60;15.53;;;-0.40;99.90;;;;;;5080411;28;20276;-86
2022/03/06 01:42:33;;;;;;;38.00;15.10;;;-0.40;99.90;;;;;;5091241;28;20228;-86
2022/03/06 01:45:00;;;;;;;33.27;15.13;;;-0.40;99.90;;;;;;5077168;28;20236;-85
2022/03/06 01:47:39;;;;;;;34.77;16.60;;;-0.40;99.90;;;;;;5076130;28;20281;-85
2022/03/06 01:50:16;;;;;;;37.73;15.50;;;-0.40;99.90;;;;;;5091020;28;20208;-86
2022/03/06 01:52:46;;;;;;;32.47;15.17;;;-0.50;99.90;;;;;;5080346;28;20204;-87
2022/03/06 01:55:14;;;;;;;30.23;15.23;;;-0.50;99.90;;;;;;5079103;28;20260;-86
2022/03/06 01:57:42;;;;;;;33.53;14.90;;;-0.50;99.90;;;;;;5085849;28;20200;-86
2022/03/06 02:00:14;;;;;;;34.50;15.73;;;-0.50;99.90;;;;;;5096451;28;20590;-85
2022/03/06 02:02:44;;;;;;;31.67;14.97;;;-0.50;99.90;;;;;;5076196;28;20214;-85
2022/03/06 02:05:12;;;;;;;33.30;14.87;;;-0.60;99.90;;;;;;5083825;28;20634;-85
2022/03/06 02:07:39;;;;;;;35.07;14.77;;;-0.60;99.90;;;;;;5074076;28;20621;-86
2022/03/06 02:10:08;;;;;;;32.37;14.37;;;-0.70;99.90;;;;;;5092215;28;20257;-86
2022/03/06 02:12:35;;;;;;;30.07;14.23;;;-0.60;99.90;;;;;;5064559;28;20213;-85
2022/03/06 02:15:06;;;;;;;28.53;13.83;;;-0.60;99.90;;;;;;5071373;28;20214;-85
2022/03/06 02:17:33;;;;;;;29.57;13.53;;;-0.70;99.90;;;;;;5090299;28;20243;-85
2022/03/06 02:20:04;;;;;;;36.47;15.53;;;-0.70;99.90;;;;;;5075411;28;20207;-86
2022/03/06 02:22:36;;;;;;;28.33;13.60;;;-0.70;99.90;;;;;;5062310;28;20696;-84
2022/03/06 02:25:15;;;;;;;30.33;14.03;;;-0.70;99.90;;;;;;5075293;28;20290;-85
2022/03/06 02:27:42;;;;;;;28.40;14.43;;;-0.70;99.90;;;;;;5084092;28;20212;-85
2022/03/06 02:30:12;;;;;;;27.23;14.10;;;-0.70;99.90;;;;;;5069407;28;20762;-85
2022/03/06 02:32:40;;;;;;;23.17;11.93;;;-0.80;99.90;;;;;;5096110;28;20629;-86
2022/03/06 02:35:08;;;;;;;31.30;14.33;;;-0.80;99.90;;;;;;5087153;28;20234;-83
2022/03/06 02:37:36;;;;;;;28.80;13.10;;;-0.80;99.90;;;;;;5088811;28;20304;-84
2022/03/06 02:40:06;;;;;;;26.93;13.20;;;-0.70;99.90;;;;;;5073890;28;20243;-86
2022/03/06 02:42:35;;;;;;;30.80;14.40;;;-0.80;99.90;;;;;;5078076;28;20204;-84
2022/03/06 02:45:26;;;;;;;25.47;13.20;;;-0.80;99.90;;;;;;5072103;28;20201;-85
2022/03/06 02:47:55;;;;;;;28.20;12.63;;;-0.80;99.90;;;;;;5082961;28;20212;-84
2022/03/06 02:50:25;;;;;;;32.27;14.07;;;-0.80;99.90;;;;;;5083452;28;20307;-85
2022/03/06 02:52:53;;;;;;;27.50;13.70;;;-0.80;99.90;;;;;;5070501;28;20200;-84
2022/03/06 02:55:21;;;;;;;29.03;13.70;;;-0.80;99.90;;;;;;5086554;28;20216;-85
2022/03/06 02:57:48;;;;;;;27.47;14.47;;;-0.80;99.90;;;;;;5079831;28;20584;-85
2022/03/06 03:00:18;;;;;;;26.57;13.73;;;-0.80;99.90;;;;;;5092401;28;20617;-85
2022/03/06 03:02:46;;;;;;;31.13;14.60;;;-0.80;99.90;;;;;;5074735;28;20613;-85
2022/03/06 03:05:14;;;;;;;29.63;14.27;;;-0.80;99.90;;;;;;5062145;28;20196;-86
2022/03/06 03:07:42;;;;;;;29.57;13.43;;;-0.90;99.90;;;;;;5060963;28;20211;-84
2022/03/06 03:10:10;;;;;;;28.50;14.10;;;-0.90;99.90;;;;;;5078962;28;20690;-84
2022/03/06 03:12:40;;;;;;;36.10;14.73;;;-0.90;99.90;;;;;;5084192;28;20231;-84
2022/03/06 03:15:09;;;;;;;33.20;14.47;;;-0.90;99.90;;;;;;5096043;28;20489;-85
2022/03/06 03:17:37;;;;;;;28.23;14.93;;;-0.90;99.90;;;;;;5085437;28;20211;-86
2022/03/06 03:20:05;;;;;;;33.70;14.97;;;-0.90;99.90;;;;;;5075949;28;20232;-85
2022/03/06 03:22:32;;;;;;;32.80;15.60;;;-1.00;99.90;;;;;;5075926;28;20203;-86
2022/03/06 03:24:59;;;;;;;33.00;14.20;;;-1.00;99.90;;;;;;5075353;28;20207;-85
2022/03/06 03:27:26;;;;;;;33.47;15.50;;;-1.00;99.90;;;;;;5075160;28;20277;-85
2022/03/06 03:29:53;;;;;;;31.50;15.03;;;-1.00;99.90;;;;;;5085956;28;20195;-84
2022/03/06 03:32:20;;;;;;;33.70;15.43;;;-1.00;99.90;;;;;;5080784;28;20319;-84
2022/03/06 03:34:47;;;;;;;29.27;15.43;;;-1.00;99.90;;;;;;5109165;28;20214;-85
2022/03/06 03:37:14;;;;;;;31.20;15.87;;;-1.00;99.90;;;;;;5094557;28;20296;-85
2022/03/06 03:39:40;;;;;;;33.03;15.87;;;-1.00;99.90;;;;;;5070581;28;20224;-85
2022/03/06 03:42:07;;;;;;;35.43;16.47;;;-1.00;99.90;;;;;;5073160;28;20652;-86
2022/03/06 03:44:34;;;;;;;36.03;16.77;;;-0.90;99.90;;;;;;5096790;28;20199;-86
2022/03/06 03:47:01;;;;;;;31.97;15.50;;;-1.10;99.90;;;;;;5074089;28;20223;-86
2022/03/06 03:49:28;;;;;;;35.03;16.23;;;-1.10;99.90;;;;;;5088867;28;20224;-85
2022/03/06 03:51:55;;;;;;;35.93;17.60;;;-1.10;99.90;;;;;;5072237;28;20316;-86
2022/03/06 03:54:22;;;;;;;33.40;16.33;;;-1.10;99.90;;;;;;5092377;28;20203;-86
2022/03/06 03:56:49;;;;;;;34.13;16.60;;;-1.10;99.90;;;;;;5073858;28;20335;-85
2022/03/06 03:59:16;;;;;;;33.73;16.07;;;-1.20;99.90;;;;;;5071548;28;20238;-85
2022/03/06 04:01:43;;;;;;;37.13;17.67;;;-1.20;99.90;;;;;;5074803;28;20248;-86
2022/03/06 04:04:10;;;;;;;37.97;17.73;;;-1.20;99.90;;;;;;5094022;28;20660;-84
2022/03/06 04:06:37;;;;;;;35.93;15.80;;;-1.20;99.90;;;;;;5069212;28;20204;-85
2022/03/06 04:09:04;;;;;;;35.87;17.67;;;-1.20;99.90;;;;;;5095236;28;20398;-86
2022/03/06 04:11:31;;;;;;;36.73;17.53;;;-1.10;99.90;;;;;;5097759;28;20207;-85
2022/03/06 04:14:01;;;;;;;33.90;17.47;;;-1.30;99.90;;;;;;5096404;28;20221;-85
2022/03/06 04:16:28;;;;;;;41.30;17.60;;;-1.30;99.90;;;;;;5088322;28;20227;-85
2022/03/06 04:18:55;;;;;;;33.73;17.60;;;-1.30;99.90;;;;;;5087092;28;20204;-84
2022/03/06 04:21:22;;;;;;;36.43;17.37;;;-1.30;99.90;;;;;;5069050;28;20203;-85
2022/03/06 04:23:49;;;;;;;40.63;19.07;;;-1.30;99.90;;;;;;5091578;28;20256;-84
2022/03/06 04:26:15;;;;;;;42.23;18.33;;;-1.30;99.90;;;;;;5090333;28;20686;-85
2022/03/06 04:28:42;;;;;;;39.53;17.97;;;-1.30;99.90;;;;;;5075414;28;20203;-84
2022/03/06 04:31:09;;;;;;;42.27;18.70;;;-1.30;99.90;;;;;;5089352;28;20589;-85
2022/03/06 04:33:36;;;;;;;38.67;18.97;;;-1.30;99.90;;;;;;5089294;28;20217;-87
2022/03/06 04:36:03;;;;;;;37.30;18.97;;;-1.30;99.90;;;;;;5079558;28;20327;-85
2022/03/06 04:38:30;;;;;;;38.77;17.80;;;-1.30;99.90;;;;;;5075542;28;20200;-85
2022/03/06 04:40:57;;;;;;;40.23;19.23;;;-1.30;99.90;;;;;;5095147;28;20237;-86
2022/03/06 04:43:25;;;;;;;41.90;17.70;;;-1.30;99.90;;;;;;5083121;28;20200;-85
2022/03/06 04:45:52;;;;;;;42.57;19.07;;;-1.40;99.90;;;;;;5073945;28;20222;-85
2022/03/06 04:48:19;;;;;;;42.47;20.23;;;-1.40;99.90;;;;;;5085127;28;20588;-84
2022/03/06 04:50:46;;;;;;;45.00;19.80;;;-1.40;99.90;;;;;;5075393;28;20261;-86
2022/03/06 04:53:13;;;;;;;45.90;19.73;;;-1.40;99.90;;;;;;5065013;28;20257;-86
2022/03/06 04:55:40;;;;;;;38.23;18.27;;;-1.40;99.90;;;;;;5105503;28;20208;-85
2022/03/06 04:58:07;;;;;;;43.97;19.20;;;-1.40;99.90;;;;;;5082720;28;20219;-83
2022/03/06 05:00:34;;;;;;;38.43;18.27;;;-1.50;99.90;;;;;;5100933;28;20330;-85
2022/03/06 05:03:01;;;;;;;41.80;19.43;;;-1.50;99.90;;;;;;5070844;28;20495;-85
2022/03/06 05:05:29;;;;;;;38.80;18.27;;;-1.50;99.90;;;;;;5082650;28;20215;-86
2022/03/06 05:07:56;;;;;;;37.77;18.33;;;-1.40;99.90;;;;;;5075730;28;20208;-86
2022/03/06 05:10:22;;;;;;;36.23;17.23;;;-1.50;99.90;;;;;;5074040;28;20294;-86
2022/03/06 05:12:49;;;;;;;39.37;18.77;;;-1.60;99.90;;;;;;5073294;28;20284;-86
2022/03/06 05:15:16;;;;;;;39.63;18.83;;;-1.60;99.90;;;;;;5069321;28;20702;-87
2022/03/06 05:17:43;;;;;;;40.50;19.10;;;-1.60;99.90;;;;;;5078344;28;20642;-86
2022/03/06 05:20:12;;;;;;;39.50;18.53;;;-1.60;99.90;;;;;;5087594;28;20254;-86
2022/03/06 05:22:39;;;;;;;43.63;20.40;;;-1.60;99.90;;;;;;5085404;28;20579;-86
2022/03/06 05:25:08;;;;;;;45.83;18.93;;;-1.60;99.90;;;;;;5094797;28;20660;-86
2022/03/06 05:27:35;;;;;;;39.90;18.00;;;-1.70;99.90;;;;;;5073047;28;20219;-86
2022/03/06 05:30:07;;;;;;;41.10;20.00;;;-1.70;99.90;;;;;;5096762;28;20208;-85
2022/03/06 05:32:34;;;;;;;43.23;20.30;;;-1.70;99.90;;;;;;5080674;28;20308;-87
2022/03/06 05:35:01;;;;;;;36.93;18.93;;;-1.70;99.90;;;;;;5093988;28;20587;-86
2022/03/06 05:37:29;;;;;;;41.23;19.70;;;-1.70;99.90;;;;;;5078718;28;20234;-85
2022/03/06 05:39:56;;;;;;;45.13;19.10;;;-1.70;99.90;;;;;;5068793;28;20204;-85
2022/03/06 05:42:23;;;;;;;42.20;19.40;;;-1.80;99.90;;;;;;5092708;28;20292;-85
2022/03/06 05:44:51;;;;;;;36.67;19.13;;;-1.80;99.90;;;;;;5091387;28;20310;-86
2022/03/06 05:47:18;;;;;;;41.97;19.80;;;-1.80;99.90;;;;;;5080471;28;20306;-85
2022/03/06 05:49:45;;;;;;;40.83;19.27;;;-1.80;99.90;;;;;;5090502;28;20196;-85
2022/03/06 05:52:11;;;;;;;38.97;19.13;;;-1.80;99.90;;;;;;5071027;28;20283;-85
2022/03/06 05:54:38;;;;;;;38.43;19.10;;;-1.80;99.90;;;;;;5091504;28;20794;-85
2022/03/06 05:57:06;;;;;;;40.30;19.03;;;-1.80;99.90;;;;;;5070328;28;20328;-84
2022/03/06 05:59:33;;;;;;;38.50;19.27;;;-1.80;99.90;;;;;;5067422;28;20207;-85
2022/03/06 06:02:01;;;;;;;38.50;19.07;;;-1.80;99.90;;;;;;5076453;28;20259;-84
2022/03/06 06:04:28;;;;;;;41.90;20.30;;;-1.70;99.90;;;;;;5077885;28;20291;-83
2022/03/06 06:06:55;;;;;;;44.37;19.83;;;-1.80;99.90;;;;;;5070234;28;20216;-85
2022/03/06 06:09:21;;;;;;;46.53;20.10;;;-1.70;99.90;;;;;;5089556;28;20213;-85
2022/03/06 06:11:48;;;;;;;40.80;19.43;;;-1.70;99.90;;;;;;5076387;28;20227;-83
2022/03/06 06:14:16;;;;;;;41.57;20.23;;;-1.70;99.90;;;;;;5094751;28;20266;-84
2022/03/06 06:16:46;;;;;;;38.03;18.97;;;-1.70;99.90;;;;;;5074744;28;20354;-84
2022/03/06 06:19:13;;;;;;;38.77;17.93;;;-1.70;99.90;;;;;;5092307;28;20207;-84
2022/03/06 06:21:43;;;;;;;37.87;19.70;;;-1.70;99.90;;;;;;5069537;28;20714;-85
2022/03/06 06:24:14;;;;;;;41.60;20.27;;;-1.60;99.90;;;;;;5090995;28;20211;-85
2022/03/06 06:26:42;;;;;;;40.13;20.90;;;-1.60;99.90;;;;;;5067422;28;20546;-84
2022/03/06 06:29:09;;;;;;;40.17;20.43;;;-1.50;99.90;;;;;;5097160;28;20227;-84
2022/03/06 06:31:36;;;;;;;39.13;20.07;;;-1.40;99.90;;;;;;5092387;28;20269;-83
2022/03/06 06:34:03;;;;;;;37.07;19.50;;;-1.50;99.90;;;;;;5080716;28;20663;-84
2022/03/06 06:36:30;;;;;;;37.10;19.93;;;-1.50;99.90;;;;;;5090248;28;20247;-84
2022/03/06 06:38:56;;;;;;;41.13;19.57;;;-1.40;99.90;;;;;;5072825;28;20705;-83
2022/03/06 06:41:23;;;;;;;40.97;20.67;;;-1.40;99.90;;;;;;5073742;28;20259;-82
2022/03/06 06:43:50;;;;;;;41.63;19.60;;;-1.20;99.90;;;;;;5070863;28;20212;-83
2022/03/06 06:46:17;;;;;;;39.10;19.00;;;-1.40;99.90;;;;;;5093363;28;20219;-83
2022/03/06 06:48:44;;;;;;;40.20;20.87;;;-1.40;99.90;;;;;;5089739;28;20254;-83
2022/03/06 06:51:10;;;;;;;40.93;19.90;;;-1.30;99.90;;;;;;5091417;28;20207;-85
2022/03/06 06:53:37;;;;;;;42.33;22.00;;;-1.30;99.90;;;;;;5092915;28;20276;-84
2022/03/06 06:56:04;;;;;;;41.00;21.07;;;-1.30;99.90;;;;;;5068701;28;20188;-83
2022/03/06 06:58:32;;;;;;;61.80;26.63;;;-1.20;99.90;;;;;;5086227;28;20285;-83
2022/03/06 07:00:58;;;;;;;78.67;31.30;;;-0.90;99.90;;;;;;5067737;28;20615;-83
2022/03/06 07:03:25;;;;;;;72.30;30.73;;;-0.30;99.90;;;;;;5093309;28;20196;-83
2022/03/06 07:05:52;;;;;;;67.73;31.30;;;0.20;99.90;;;;;;5082781;28;20676;-83
2022/03/06 07:08:19;;;;;;;52.60;27.07;;;0.80;99.90;;;;;;5093763;28;20223;-83
2022/03/06 07:10:46;;;;;;;48.30;23.07;;;1.40;99.90;;;;;;5073604;28;20281;-82
2022/03/06 07:13:13;;;;;;;29.50;16.30;;;1.90;99.90;;;;;;5065290;28;20860;-84
2022/03/06 07:15:39;;;;;;;21.83;14.47;;;2.50;99.90;;;;;;5096640;28;20216;-83
2022/03/06 07:18:06;;;;;;;18.40;11.57;;;2.90;99.90;;;;;;5073430;28;20259;-83
2022/03/06 07:20:33;;;;;;;18.20;11.50;;;3.20;99.90;;;;;;5094304;28;20193;-83
2022/03/06 07:23:05;;;;;;;16.40;10.17;;;3.50;99.90;;;;;;5072582;28;20197;-84
2022/03/06 07:25:32;;;;;;;19.33;11.87;;;3.80;99.90;;;;;;5082355;28;20201;-83
2022/03/06 07:27:59;;;;;;;16.80;10.97;;;4.00;99.90;;;;;;5094722;28;20231;-83
2022/03/06 07:30:26;;;;;;;17.53;10.63;;;4.20;99.90;;;;;;5080408;28;20322;-82
2022/03/06 07:32:53;;;;;;;18.40;10.40;;;4.40;99.90;;;;;;5070958;28;20723;-85
2022/03/06 07:35:22;;;;;;;14.67;10.13;;;4.50;99.90;;;;;;5084749;28;20208;-84
2022/03/06 07:37:50;;;;;;;12.03;9.23;;;4.70;99.90;;;;;;5069724;28;20227;-83
2022/03/06 07:40:19;;;;;;;13.43;10.40;;;4.90;99.90;;;;;;5089633;28;20238;-84
2022/03/06 07:42:46;;;;;;;15.40;9.67;;;5.00;99.90;;;;;;5074825;28;20787;-83
2022/03/06 07:45:14;;;;;;;13.00;9.53;;;4.90;99.90;;;;;;5094972;28;20215;-84
2022/03/06 07:47:41;;;;;;;15.43;8.97;;;4.60;99.90;;;;;;5108655;28;20200;-84
2022/03/06 07:50:10;;;;;;;12.50;9.07;;;4.20;99.90;;;;;;5112422;28;20224;-84
2022/03/06 07:52:38;;;;;;;14.70;9.53;;;3.70;99.90;;;;;;5092444;28;20207;-82
2022/03/06 07:55:06;;;;;;;14.13;9.73;;;3.30;99.90;;;;;;5099044;28;20205;-84
2022/03/06 07:57:34;;;;;;;13.80;9.30;;;3.10;99.90;;;;;;5111251;28;20211;-80
2022/03/06 08:00:01;;;;;;;14.90;10.13;;;2.90;99.90;;;;;;5092532;28;20733;-82
2022/03/06 08:02:29;;;;;;;14.67;10.03;;;2.70;99.90;;;;;;5094492;28;20214;-84
2022/03/06 08:04:56;;;;;;;12.40;8.83;;;2.60;99.90;;;;;;5090757;28;20191;-83
2022/03/06 08:07:23;;;;;;;14.77;10.27;;;2.50;99.90;;;;;;5084013;28;20228;-83
2022/03/06 08:09:49;;;;;;;15.57;9.80;;;2.40;99.90;;;;;;5105123;28;20204;-84
2022/03/06 08:12:16;;;;;;;13.57;9.60;;;2.40;99.90;;;;;;5085772;28;20199;-84
2022/03/06 08:14:43;;;;;;;12.90;8.93;;;2.30;99.90;;;;;;5082380;28;20251;-86
2022/03/06 08:17:10;;;;;;;15.63;9.83;;;2.20;99.90;;;;;;5092873;28;20227;-85
2022/03/06 08:19:37;;;;;;;14.73;9.17;;;2.10;99.90;;;;;;5092520;28;20253;-84
2022/03/06 08:22:04;;;;;;;12.23;8.67;;;2.10;99.90;;;;;;5068199;28;20274;-85
2022/03/06 08:24:31;;;;;;;15.20;9.90;;;2.10;99.90;;;;;;5072237;28;20295;-85
2022/03/06 08:26:58;;;;;;;14.43;9.27;;;2.00;99.90;;;;;;5092412;28;20227;-86
2022/03/06 08:29:24;;;;;;;12.77;7.87;;;2.10;99.90;;;;;;5073771;28;20283;-85
2022/03/06 08:31:54;;;;;;;9.67;7.07;;;2.00;99.90;;;;;;5072492;28;20230;-86
2022/03/06 08:34:20;;;;;;;11.23;7.73;;;2.00;99.90;;;;;;5084646;28;20290;-86
2022/03/06 08:36:47;;;;;;;9.90;6.50;;;2.00;99.90;;;;;;5073109;28;20231;-85
2022/03/06 08:39:20;;;;;;;14.13;6.40;;;2.00;99.90;;;;;;5070475;28;20503;-83
2022/03/06 08:41:47;;;;;;;11.23;5.73;;;2.00;99.90;;;;;;5093547;28;20247;-85
2022/03/06 08:44:15;;;;;;;10.47;5.93;;;2.10;99.90;;;;;;5093906;28;20289;-85
2022/03/06 08:46:42;;;;;;;7.47;5.73;;;2.10;99.90;;;;;;5085975;28;20547;-84
2022/03/06 08:49:09;;;;;;;6.60;5.43;;;2.10;99.90;;;;;;5073731;28;20556;-85
2022/03/06 08:51:38;;;;;;;8.80;5.37;;;2.20;99.90;;;;;;5064982;28;20215;-87
2022/03/06 08:54:05;;;;;;;6.33;5.07;;;2.20;99.90;;;;;;5072068;28;20282;-85
2022/03/06 08:56:31;;;;;;;8.73;5.77;;;2.30;99.90;;;;;;5071840;28;20195;-86
2022/03/06 08:58:58;;;;;;;5.47;4.97;;;2.30;99.90;;;;;;5087380;28;20231;-84
2022/03/06 09:01:25;;;;;;;8.27;5.57;;;2.30;99.90;;;;;;5085306;28;20302;-83
2022/03/06 09:03:52;;;;;;;8.57;5.27;;;2.30;99.90;;;;;;5064451;28;20569;-85
2022/03/06 09:06:19;;;;;;;8.43;5.60;;;2.30;99.90;;;;;;5087216;28;20266;-85
2022/03/06 09:08:46;;;;;;;9.50;5.63;;;2.40;99.90;;;;;;5070086;28;20199;-83
2022/03/06 09:11:13;;;;;;;10.63;5.50;;;2.50;99.90;;;;;;5087223;28;20326;-84
2022/03/06 09:13:40;;;;;;;7.53;5.10;;;2.50;99.90;;;;;;5089972;28;20208;-85
2022/03/06 09:16:07;;;;;;;8.67;4.87;;;2.60;99.90;;;;;;5087740;28;20228;-83
2022/03/06 09:18:34;;;;;;;9.20;5.70;;;2.70;99.90;;;;;;5075273;28;20244;-85
2022/03/06 09:21:01;;;;;;;7.57;4.87;;;2.70;99.90;;;;;;5070862;28;20206;-87
2022/03/06 09:23:27;;;;;;;6.13;5.23;;;2.80;99.90;;;;;;5076282;28;20265;-85
2022/03/06 09:25:57;;;;;;;7.47;4.60;;;2.90;99.90;;;;;;5089172;28;20763;-85
2022/03/06 09:28:23;;;;;;;9.10;5.33;;;3.00;99.90;;;;;;5093140;28;20231;-85
2022/03/06 09:30:50;;;;;;;6.97;4.90;;;3.10;99.90;;;;;;5080611;28;20210;-87
2022/03/06 09:33:17;;;;;;;6.53;4.87;;;3.40;99.90;;;;;;5078017;28;20770;-86
2022/03/06 09:35:44;;;;;;;7.50;4.80;;;3.70;99.90;;;;;;5078217;28;20285;-88
2022/03/06 09:38:11;;;;;;;9.33;5.97;;;4.00;99.90;;;;;;5081546;28;20371;-88
2022/03/06 09:40:44;;;;;;;10.40;5.40;;;4.30;99.90;;;;;;5079872;28;20714;-87
2022/03/06 09:43:16;;;;;;;5.57;4.80;;;4.60;99.90;;;;;;5079795;28;20229;-87
2022/03/06 09:45:45;;;;;;;8.53;4.80;;;4.90;99.90;;;;;;5090722;28;20246;-87
2022/03/06 09:48:16;;;;;;;6.00;4.80;;;5.10;99.90;;;;;;5104952;28;20206;-88
2022/03/06 09:50:43;;;;;;;5.57;4.10;;;5.40;99.90;;;;;;5082143;28;20211;-87
2022/03/06 09:53:10;;;;;;;5.20;4.63;;;5.60;99.90;;;;;;5082873;28;20204;-88
2022/03/06 09:55:38;;;;;;;7.03;5.03;;;5.70;99.90;;;;;;5077431;28;20204;-86
2022/03/06 09:58:05;;;;;;;9.57;4.43;;;5.70;99.90;;;;;;5092760;28;20832;-87
2022/03/06 10:00:34;;;;;;;7.30;4.90;;;5.60;99.90;;;;;;5079803;28;20220;-87
2022/03/06 10:03:03;;;;;;;7.00;4.93;;;5.50;99.90;;;;;;5079658;28;20216;-88
2022/03/06 10:05:39;;;;;;;6.23;4.63;;;5.30;99.90;;;;;;5083883;28;20205;-87
2022/03/06 10:08:26;;;;;;;7.27;5.03;;;5.30;99.90;;;;;;5092700;28;20267;-87
2022/03/06 10:11:10;;;;;;;6.73;4.80;;;5.10;99.90;;;;;;5075661;28;20210;-86
2022/03/06 10:13:38;;;;;;;8.07;4.53;;;5.00;99.90;;;;;;5075399;28;20690;-87
2022/03/06 10:16:08;;;;;;;7.57;5.00;;;4.90;99.90;;;;;;5082094;28;20323;-88
2022/03/06 10:18:47;;;;;;;7.47;5.50;;;4.90;99.90;;;;;;5089383;28;20227;-85
2022/03/06 10:21:19;;;;;;;8.77;5.10;;;4.80;99.90;;;;;;5076314;28;20203;-86
2022/03/06 10:23:48;;;;;;;7.67;5.03;;;4.80;99.90;;;;;;5076267;28;20199;-85
2022/03/06 10:26:19;;;;;;;7.97;5.60;;;4.70;99.90;;;;;;5079329;28;20262;-86
2022/03/06 10:28:48;;;;;;;7.23;5.10;;;4.60;99.90;;;;;;5094332;28;20298;-86
2022/03/06 10:31:17;;;;;;;6.10;4.70;;;4.60;99.90;;;;;;5096748;28;20215;-85
2022/03/06 10:34:11;;;;;;;7.90;5.40;;;4.60;99.90;;;;;;5093436;28;20216;-84
2022/03/06 10:36:39;;;;;;;9.60;5.37;;;4.60;99.90;;;;;;5088226;28;20296;-87
2022/03/06 10:39:15;;;;;;;9.23;5.77;;;4.60;99.90;;;;;;5094837;28;20228;-86
2022/03/06 10:41:47;;;;;;;9.50;5.60;;;4.60;99.90;;;;;;5065357;28;20225;-86
2022/03/06 10:44:16;;;;;;;7.40;5.40;;;4.60;99.90;;;;;;5078407;28;20303;-84
2022/03/06 10:47:05;;;;;;;7.83;5.70;;;4.60;99.90;;;;;;5094022;28;20618;-87
2022/03/06 10:49:32;;;;;;;8.60;5.57;;;4.70;99.90;;;;;;5067650;28;20282;-86
2022/03/06 10:52:19;;;;;;;9.57;6.50;;;4.70;99.90;;;;;;5078436;28;20212;-86
2022/03/06 10:54:54;;;;;;;10.07;6.07;;;4.70;99.90;;;;;;5072065;28;20207;-85
2022/03/06 10:57:23;;;;;;;9.20;5.80;;;4.70;99.90;;;;;;5092195;28;20664;-86
2022/03/06 10:59:51;;;;;;;10.13;6.07;;;4.80;99.90;;;;;;5091125;28;20212;-85
2022/03/06 11:02:18;;;;;;;8.17;6.13;;;4.90;99.90;;;;;;5091651;28;20636;-87
2022/03/06 11:04:53;;;;;;;8.27;5.93;;;5.00;99.90;;;;;;5063061;28;20209;-86
2022/03/06 11:07:21;;;;;;;8.10;5.63;;;5.10;99.90;;;;;;5088583;28;20528;-85
2022/03/06 11:09:48;;;;;;;8.87;5.73;;;5.20;99.90;;;;;;5092846;28;20236;-86
2022/03/06 11:12:17;;;;;;;10.83;5.53;;;5.50;99.90;;;;;;5083028;28;20209;-87
2022/03/06 11:14:45;;;;;;;10.23;5.70;;;5.50;99.90;;;;;;5079447;28;20348;-84
2022/03/06 11:17:12;;;;;;;7.73;5.70;;;5.60;99.90;;;;;;5078696;28;20349;-85
2022/03/06 11:19:39;;;;;;;9.03;5.77;;;5.70;99.90;;;;;;5076607;28;20318;-83
2022/03/06 11:22:27;;;;;;;11.90;5.47;;;5.90;99.90;;;;;;5090736;28;20306;-84
2022/03/06 11:25:01;;;;;;;8.03;6.00;;;5.90;99.90;;;;;;5078860;28;20271;-85
2022/03/06 11:28:14;;;;;;;7.50;5.80;;;6.00;99.90;;;;;;5083662;28;20206;-85
2022/03/06 11:30:41;;;;;;;9.10;6.10;;;6.20;99.90;;;;;;5067079;28;20214;-86
2022/03/06 11:33:13;;;;;;;10.77;6.20;;;6.20;99.90;;;;;;5077754;28;20231;-86
2022/03/06 11:35:42;;;;;;;9.00;6.03;;;6.30;99.90;;;;;;5063304;28;20212;-85
2022/03/06 11:38:17;;;;;;;10.13;6.17;;;6.30;99.90;;;;;;5047176;28;20292;-83
2022/03/06 11:40:53;;;;;;;10.93;6.40;;;6.40;99.90;;;;;;5073683;28;20205;-84
2022/03/06 11:43:30;;;;;;;8.13;6.70;;;6.40;99.90;;;;;;5052291;28;20248;-86
2022/03/06 11:46:05;;;;;;;11.47;6.97;;;6.50;99.90;;;;;;5053617;28;20224;-86
2022/03/06 11:48:32;;;;;;;8.93;6.73;;;6.60;99.90;;;;;;5048461;28;20566;-86
2022/03/06 11:51:20;;;;;;;9.90;6.13;;;6.80;99.90;;;;;;5066736;28;20236;-85
2022/03/06 11:54:00;;;;;;;8.77;5.63;;;6.90;99.90;;;;;;5062309;28;20197;-86
2022/03/06 11:56:39;;;;;;;8.27;6.17;;;7.10;99.90;;;;;;5073207;28;20269;-86
2022/03/06 11:59:19;;;;;;;10.13;6.23;;;7.10;99.90;;;;;;5056325;28;20225;-87
2022/03/06 12:01:48;;;;;;;9.83;6.70;;;7.00;99.90;;;;;;5049077;28;20211;-85
2022/03/06 12:04:18;;;;;;;7.63;6.07;;;7.10;99.90;;;;;;5054806;28;20679;-84
2022/03/06 12:06:49;;;;;;;10.47;6.13;;;7.10;99.90;;;;;;5053141;28;20193;-85
2022/03/06 12:09:27;;;;;;;7.80;5.90;;;7.10;99.90;;;;;;5055038;28;20203;-84
2022/03/06 12:11:57;;;;;;;10.93;6.13;;;7.20;99.90;;;;;;5050219;28;20276;-84
2022/03/06 12:14:30;;;;;;;10.07;6.57;;;7.20;99.90;;;;;;5048179;28;20201;-85
2022/03/06 12:17:00;;;;;;;8.23;6.07;;;7.30;99.90;;;;;;5065992;28;20221;-84
2022/03/06 12:19:33;;;;;;;9.77;6.83;;;7.40;99.90;;;;;;5065505;28;20282;-84
2022/03/06 12:22:19;;;;;;;8.83;6.50;;;7.40;99.90;;;;;;5049905;28;20250;-84
2022/03/06 12:25:07;;;;;;;9.33;6.07;;;7.50;99.90;;;;;;5050145;28;20738;-85
2022/03/06 12:27:40;;;;;;;10.33;6.90;;;7.50;99.90;;;;;;5054184;28;20251;-84
2022/03/06 12:30:08;;;;;;;11.33;6.90;;;7.60;99.90;;;;;;5072980;28;20229;-82
2022/03/06 12:32:37;;;;;;;11.40;7.20;;;7.60;99.90;;;;;;5084135;28;20257;-84
2022/03/06 12:35:11;;;;;;;10.10;7.20;;;7.70;99.90;;;;;;5077231;28;20696;-84
2022/03/06 12:37:50;;;;;;;9.90;6.53;;;7.80;99.90;;;;;;5086459;28;20337;-85
2022/03/06 12:40:20;;;;;;;11.43;7.00;;;7.90;99.90;;;;;;5089094;28;20214;-84
2022/03/06 12:42:51;;;;;;;10.17;6.73;;;8.00;99.90;;;;;;5087178;28;20202;-85
2022/03/06 12:45:20;;;;;;;9.93;6.83;;;8.00;99.90;;;;;;5068254;28;20245;-84
2022/03/06 12:47:47;;;;;;;9.93;6.40;;;8.10;99.90;;;;;;5077288;28;20256;-84